sensor_id;sensor_type;location;lat;lon;timestamp;temperature;humidity
21646;DHT22;10984;45.712;4.800;2023-01-26T00:01:23;3.50;99.90
21646;DHT22;10984;45.712;4.800;2023-01-26T00:03:49;3.50;99.90
21646;DHT22;10984;45.712;4.800;2023-01-26T00:06:17;3.50;99.90
21646;DHT22;10984;45.712;4.800;2023-01-26T00:08:45;3.50;99.90
21646;DHT22;10984;45.712;4.800;2023-01-26T00:11:13;3.50;99.90
21646;DHT22;10984;45.712;4.800;2023-01-26T00:13:39;3.50;99.90
21646;DHT22;10984;45.712;4.800;2023-01-26T00:16:08;3.50;99.90
21646;DHT22;10984;45.712;4.800;2023-01-26T00:18:36;3.50;99.90
21646;DHT22;10984;45.712;4.800;2023-01-26T00:21:02;3.50;99.90
21646;DHT22;10984;45.712;4.800;2023-01-26T00:23:29;3.50;99.90
21646;DHT22;10984;45.712;4.800;2023-01-26T00:25:56;3.50;99.90
21646;DHT22;10984;45.712;4.800;2023-01-26T00:28:22;3.50;99.90
21646;DHT22;10984;45.712;4.800;2023-01-26T00:30:47;3.50;99.90
21646;DHT22;10984;45.712;4.800;2023-01-26T00:33:13;3.60;99.90
21646;DHT22;10984;45.712;4.800;2023-01-26T00:35:39;3.50;99.90
21646;DHT22;10984;45.712;4.800;2023-01-26T00:38:12;3.50;99.90
21646;DHT22;10984;45.712;4.800;2023-01-26T00:40:38;3.50;99.90
21646;DHT22;10984;45.712;4.800;2023-01-26T00:43:05;3.60;99.90
21646;DHT22;10984;45.712;4.800;2023-01-26T00:45:31;3.60;99.90
21646;DHT22;10984;45.712;4.800;2023-01-26T00:47:57;3.60;99.90
21646;DHT22;10984;45.712;4.800;2023-01-26T00:50:24;3.60;99.90
21646;DHT22;10984;45.712;4.800;2023-01-26T00:52:50;3.60;99.90
21646;DHT22;10984;45.712;4.800;2023-01-26T00:55:16;3.60;99.90
21646;DHT22;10984;45.712;4.800;2023-01-26T00:57:41;3.60;99.90
21646;DHT22;10984;45.712;4.800;2023-01-26T01:00:07;3.60;99.90
21646;DHT22;10984;45.712;4.800;2023-01-26T01:02:35;3.60;99.90
21646;DHT22;10984;45.712;4.800;2023-01-26T01:05:00;3.70;99.90
21646;DHT22;10984;45.712;4.800;2023-01-26T01:07:26;3.70;99.90
21646;DHT22;10984;45.712;4.800;2023-01-26T01:09:51;3.70;99.90
21646;DHT22;10984;45.712;4.800;2023-01-26T01:12:17;3.70;99.90
21646;DHT22;10984;45.712;4.800;2023-01-26T01:14:43;3.70;99.90
21646;DHT22;10984;45.712;4.800;2023-01-26T01:17:08;3.70;99.90
21646;DHT22;10984;45.712;4.800;2023-01-26T01:19:34;3.60;99.90
21646;DHT22;10984;45.712;4.800;2023-01-26T01:22:00;3.50;99.90
21646;DHT22;10984;45.712;4.800;2023-01-26T01:24:25;3.50;99.90
21646;DHT22;10984;45.712;4.800;2023-01-26T01:26:51;3.60;99.90
21646;DHT22;10984;45.712;4.800;2023-01-26T01:29:17;3.60;99.90
21646;DHT22;10984;45.712;4.800;2023-01-26T01:31:42;3.50;99.90
21646;DHT22;10984;45.712;4.800;2023-01-26T01:34:08;3.60;99.90
21646;DHT22;10984;45.712;4.800;2023-01-26T01:36:34;3.60;99.90
21646;DHT22;10984;45.712;4.800;2023-01-26T01:38:59;3.60;99.90
21646;DHT22;10984;45.712;4.800;2023-01-26T01:41:25;3.60;99.90
21646;DHT22;10984;45.712;4.800;2023-01-26T01:44:09;3.60;99.90
21646;DHT22;10984;45.712;4.800;2023-01-26T01:46:36;3.50;99.90
21646;DHT22;10984;45.712;4.800;2023-01-26T01:49:05;3.60;99.90
21646;DHT22;10984;45.712;4.800;2023-01-26T01:54:43;3.50;99.90
21646;DHT22;10984;45.712;4.800;2023-01-26T01:57:13;3.50;99.90
21646;DHT22;10984;45.712;4.800;2023-01-26T01:59:43;3.50;99.90
21646;DHT22;10984;45.712;4.800;2023-01-26T02:02:09;3.50;99.90
21646;DHT22;10984;45.712;4.800;2023-01-26T02:04:36;3.40;99.90
21646;DHT22;10984;45.712;4.800;2023-01-26T02:07:03;3.50;99.90
21646;DHT22;10984;45.712;4.800;2023-01-26T02:09:32;3.40;99.90
21646;DHT22;10984;45.712;4.800;2023-01-26T02:12:20;3.50;99.90
21646;DHT22;10984;45.712;4.800;2023-01-26T02:14:48;3.50;99.90
21646;DHT22;10984;45.712;4.800;2023-01-26T02:17:14;3.50;99.90
21646;DHT22;10984;45.712;4.800;2023-01-26T02:28:36;3.40;99.90
21646;DHT22;10984;45.712;4.800;2023-01-26T02:31:02;3.40;99.90
21646;DHT22;10984;45.712;4.800;2023-01-26T02:33:31;3.50;99.90
21646;DHT22;10984;45.712;4.800;2023-01-26T02:35:57;3.40;99.90
21646;DHT22;10984;45.712;4.800;2023-01-26T02:38:28;3.40;99.90
21646;DHT22;10984;45.712;4.800;2023-01-26T02:41:01;3.30;99.90
21646;DHT22;10984;45.712;4.800;2023-01-26T02:43:29;3.30;99.90
21646;DHT22;10984;45.712;4.800;2023-01-26T02:45:54;3.30;99.90
21646;DHT22;10984;45.712;4.800;2023-01-26T02:48:21;3.30;99.90
21646;DHT22;10984;45.712;4.800;2023-01-26T02:51:05;3.30;99.90
21646;DHT22;10984;45.712;4.800;2023-01-26T02:53:31;3.30;99.90
21646;DHT22;10984;45.712;4.800;2023-01-26T02:55:57;3.30;99.90
21646;DHT22;10984;45.712;4.800;2023-01-26T02:58:23;3.30;99.90
21646;DHT22;10984;45.712;4.800;2023-01-26T03:00:48;3.20;99.90
21646;DHT22;10984;45.712;4.800;2023-01-26T03:03:17;3.20;99.90
21646;DHT22;10984;45.712;4.800;2023-01-26T03:05:44;3.20;99.90
21646;DHT22;10984;45.712;4.800;2023-01-26T03:08:09;3.20;99.90
21646;DHT22;10984;45.712;4.800;2023-01-26T03:10:35;3.20;99.90
21646;DHT22;10984;45.712;4.800;2023-01-26T03:13:02;3.30;99.90
21646;DHT22;10984;45.712;4.800;2023-01-26T03:15:27;3.30;99.90
21646;DHT22;10984;45.712;4.800;2023-01-26T03:18:14;3.40;99.90
21646;DHT22;10984;45.712;4.800;2023-01-26T03:24:03;3.30;99.90
21646;DHT22;10984;45.712;4.800;2023-01-26T03:26:47;3.20;99.90
21646;DHT22;10984;45.712;4.800;2023-01-26T03:29:32;3.30;99.90
21646;DHT22;10984;45.712;4.800;2023-01-26T03:31:58;3.30;99.90
21646;DHT22;10984;45.712;4.800;2023-01-26T03:34:24;3.20;99.90
21646;DHT22;10984;45.712;4.800;2023-01-26T03:36:50;3.20;99.90
21646;DHT22;10984;45.712;4.800;2023-01-26T03:39:15;3.10;99.90
21646;DHT22;10984;45.712;4.800;2023-01-26T03:42:01;3.10;99.90
21646;DHT22;10984;45.712;4.800;2023-01-26T03:44:47;3.20;99.90
21646;DHT22;10984;45.712;4.800;2023-01-26T03:47:32;3.20;99.90
21646;DHT22;10984;45.712;4.800;2023-01-26T03:50:16;3.30;99.90
21646;DHT22;10984;45.712;4.800;2023-01-26T03:53:00;3.20;99.90
21646;DHT22;10984;45.712;4.800;2023-01-26T03:55:45;3.30;99.90
21646;DHT22;10984;45.712;4.800;2023-01-26T03:58:29;3.30;99.90
21646;DHT22;10984;45.712;4.800;2023-01-26T04:00:56;3.30;99.90
21646;DHT22;10984;45.712;4.800;2023-01-26T04:03:21;3.30;99.90
21646;DHT22;10984;45.712;4.800;2023-01-26T04:06:06;3.20;99.90
21646;DHT22;10984;45.712;4.800;2023-01-26T04:08:50;3.30;99.90
21646;DHT22;10984;45.712;4.800;2023-01-26T04:11:15;3.20;99.90
21646;DHT22;10984;45.712;4.800;2023-01-26T04:13:41;3.20;99.90
21646;DHT22;10984;45.712;4.800;2023-01-26T04:16:25;3.20;99.90
21646;DHT22;10984;45.712;4.800;2023-01-26T04:19:10;3.30;99.90
21646;DHT22;10984;45.712;4.800;2023-01-26T04:21:54;3.20;99.90
21646;DHT22;10984;45.712;4.800;2023-01-26T04:24:20;3.30;99.90
21646;DHT22;10984;45.712;4.800;2023-01-26T04:26:46;3.30;99.90
21646;DHT22;10984;45.712;4.800;2023-01-26T04:29:14;3.30;99.90
21646;DHT22;10984;45.712;4.800;2023-01-26T04:31:41;3.20;99.90
21646;DHT22;10984;45.712;4.800;2023-01-26T04:34:10;3.30;99.90
21646;DHT22;10984;45.712;4.800;2023-01-26T04:36:37;3.20;99.90
21646;DHT22;10984;45.712;4.800;2023-01-26T04:39:03;3.10;99.90
21646;DHT22;10984;45.712;4.800;2023-01-26T04:41:29;3.10;99.90
21646;DHT22;10984;45.712;4.800;2023-01-26T04:43:55;3.20;99.90
21646;DHT22;10984;45.712;4.800;2023-01-26T04:46:21;3.20;99.90
21646;DHT22;10984;45.712;4.800;2023-01-26T04:48:47;3.20;99.90
21646;DHT22;10984;45.712;4.800;2023-01-26T04:51:18;3.20;99.90
21646;DHT22;10984;45.712;4.800;2023-01-26T04:53:45;3.10;99.90
21646;DHT22;10984;45.712;4.800;2023-01-26T04:56:31;3.00;99.90
21646;DHT22;10984;45.712;4.800;2023-01-26T04:58:59;3.10;99.90
21646;DHT22;10984;45.712;4.800;2023-01-26T05:01:25;3.10;99.90
21646;DHT22;10984;45.712;4.800;2023-01-26T05:03:50;3.00;99.90
21646;DHT22;10984;45.712;4.800;2023-01-26T05:06:17;3.10;99.90
21646;DHT22;10984;45.712;4.800;2023-01-26T05:08:42;3.10;99.90
21646;DHT22;10984;45.712;4.800;2023-01-26T05:11:08;3.10;99.90
21646;DHT22;10984;45.712;4.800;2023-01-26T05:13:34;3.00;99.90
21646;DHT22;10984;45.712;4.800;2023-01-26T05:16:01;3.10;99.90
21646;DHT22;10984;45.712;4.800;2023-01-26T05:18:27;3.10;99.90
21646;DHT22;10984;45.712;4.800;2023-01-26T05:20:53;3.10;99.90
21646;DHT22;10984;45.712;4.800;2023-01-26T05:23:19;3.20;99.90
21646;DHT22;10984;45.712;4.800;2023-01-26T05:25:45;3.10;99.90
21646;DHT22;10984;45.712;4.800;2023-01-26T05:28:10;3.20;99.90
21646;DHT22;10984;45.712;4.800;2023-01-26T05:30:36;3.20;99.90
21646;DHT22;10984;45.712;4.800;2023-01-26T05:33:20;3.20;99.90
21646;DHT22;10984;45.712;4.800;2023-01-26T05:36:06;3.10;99.90
21646;DHT22;10984;45.712;4.800;2023-01-26T05:38:32;3.20;99.90
21646;DHT22;10984;45.712;4.800;2023-01-26T05:40:58;3.10;99.90
21646;DHT22;10984;45.712;4.800;2023-01-26T05:43:23;3.10;99.90
21646;DHT22;10984;45.712;4.800;2023-01-26T05:45:49;3.10;99.90
21646;DHT22;10984;45.712;4.800;2023-01-26T05:48:15;3.20;99.90
21646;DHT22;10984;45.712;4.800;2023-01-26T05:50:40;3.20;99.90
21646;DHT22;10984;45.712;4.800;2023-01-26T05:53:06;3.10;99.90
21646;DHT22;10984;45.712;4.800;2023-01-26T05:55:32;3.10;99.90
21646;DHT22;10984;45.712;4.800;2023-01-26T05:57:57;3.10;99.90
21646;DHT22;10984;45.712;4.800;2023-01-26T06:00:23;3.00;99.90
21646;DHT22;10984;45.712;4.800;2023-01-26T06:02:50;3.10;99.90
21646;DHT22;10984;45.712;4.800;2023-01-26T06:05:16;3.20;99.90
21646;DHT22;10984;45.712;4.800;2023-01-26T06:07:41;3.20;99.90
21646;DHT22;10984;45.712;4.800;2023-01-26T06:10:07;3.20;99.90
21646;DHT22;10984;45.712;4.800;2023-01-26T06:12:33;3.20;99.90
21646;DHT22;10984;45.712;4.800;2023-01-26T06:15:03;3.20;99.90
21646;DHT22;10984;45.712;4.800;2023-01-26T06:17:29;3.10;99.90
21646;DHT22;10984;45.712;4.800;2023-01-26T06:19:54;3.10;99.90
21646;DHT22;10984;45.712;4.800;2023-01-26T06:22:20;3.10;99.90
21646;DHT22;10984;45.712;4.800;2023-01-26T06:24:46;3.20;99.90
21646;DHT22;10984;45.712;4.800;2023-01-26T06:27:13;3.10;99.90
21646;DHT22;10984;45.712;4.800;2023-01-26T06:29:39;3.20;99.90
21646;DHT22;10984;45.712;4.800;2023-01-26T06:32:06;3.20;99.90
21646;DHT22;10984;45.712;4.800;2023-01-26T06:34:32;3.20;99.90
21646;DHT22;10984;45.712;4.800;2023-01-26T06:36:58;3.10;99.90
21646;DHT22;10984;45.712;4.800;2023-01-26T06:39:23;3.10;99.90
21646;DHT22;10984;45.712;4.800;2023-01-26T06:41:49;3.10;99.90
21646;DHT22;10984;45.712;4.800;2023-01-26T06:44:15;3.10;99.90
21646;DHT22;10984;45.712;4.800;2023-01-26T06:46:40;3.10;99.90
21646;DHT22;10984;45.712;4.800;2023-01-26T06:49:06;3.10;99.90
21646;DHT22;10984;45.712;4.800;2023-01-26T06:54:16;3.10;99.90
21646;DHT22;10984;45.712;4.800;2023-01-26T06:56:42;3.10;99.90
21646;DHT22;10984;45.712;4.800;2023-01-26T06:59:07;3.10;99.90
21646;DHT22;10984;45.712;4.800;2023-01-26T07:01:54;3.10;99.90
21646;DHT22;10984;45.712;4.800;2023-01-26T07:04:19;3.10;99.90
21646;DHT22;10984;45.712;4.800;2023-01-26T07:06:45;3.10;99.90
21646;DHT22;10984;45.712;4.800;2023-01-26T07:09:10;3.10;99.90
21646;DHT22;10984;45.712;4.800;2023-01-26T07:11:36;3.10;99.90
21646;DHT22;10984;45.712;4.800;2023-01-26T07:14:02;3.20;99.90
21646;DHT22;10984;45.712;4.800;2023-01-26T07:16:27;3.10;99.90
21646;DHT22;10984;45.712;4.800;2023-01-26T07:18:53;3.20;99.90
21646;DHT22;10984;45.712;4.800;2023-01-26T07:21:20;3.20;99.90
21646;DHT22;10984;45.712;4.800;2023-01-26T07:23:47;3.10;99.90
21646;DHT22;10984;45.712;4.800;2023-01-26T07:26:14;3.10;99.90
21646;DHT22;10984;45.712;4.800;2023-01-26T07:28:40;3.20;99.90
21646;DHT22;10984;45.712;4.800;2023-01-26T07:31:06;3.10;99.90
21646;DHT22;10984;45.712;4.800;2023-01-26T07:33:33;3.10;99.90
21646;DHT22;10984;45.712;4.800;2023-01-26T07:35:59;3.10;99.90
21646;DHT22;10984;45.712;4.800;2023-01-26T07:38:26;3.20;99.90
21646;DHT22;10984;45.712;4.800;2023-01-26T07:40:53;3.20;99.90
21646;DHT22;10984;45.712;4.800;2023-01-26T07:43:18;3.20;99.90
21646;DHT22;10984;45.712;4.800;2023-01-26T07:46:03;3.00;99.90
21646;DHT22;10984;45.712;4.800;2023-01-26T07:48:29;3.10;99.90
21646;DHT22;10984;45.712;4.800;2023-01-26T07:50:58;3.10;99.90
21646;DHT22;10984;45.712;4.800;2023-01-26T07:53:24;3.00;99.90
21646;DHT22;10984;45.712;4.800;2023-01-26T07:55:52;3.00;99.90
21646;DHT22;10984;45.712;4.800;2023-01-26T07:58:17;3.00;99.90
21646;DHT22;10984;45.712;4.800;2023-01-26T08:00:43;3.10;99.90
21646;DHT22;10984;45.712;4.800;2023-01-26T08:03:12;3.10;99.90
21646;DHT22;10984;45.712;4.800;2023-01-26T08:05:37;3.20;99.90
21646;DHT22;10984;45.712;4.800;2023-01-26T08:08:04;3.20;99.90
21646;DHT22;10984;45.712;4.800;2023-01-26T08:10:30;3.10;99.90
21646;DHT22;10984;45.712;4.800;2023-01-26T08:12:58;3.10;99.90
21646;DHT22;10984;45.712;4.800;2023-01-26T08:15:24;3.10;99.90
21646;DHT22;10984;45.712;4.800;2023-01-26T08:17:50;3.20;99.90
21646;DHT22;10984;45.712;4.800;2023-01-26T08:20:15;3.20;99.90
21646;DHT22;10984;45.712;4.800;2023-01-26T08:22:41;3.20;99.90
21646;DHT22;10984;45.712;4.800;2023-01-26T08:25:07;3.20;99.90
21646;DHT22;10984;45.712;4.800;2023-01-26T08:27:33;3.10;99.90
21646;DHT22;10984;45.712;4.800;2023-01-26T08:29:58;3.10;99.90
21646;DHT22;10984;45.712;4.800;2023-01-26T08:32:24;3.10;99.90
21646;DHT22;10984;45.712;4.800;2023-01-26T08:34:49;3.20;99.90
21646;DHT22;10984;45.712;4.800;2023-01-26T08:37:15;3.10;99.90
21646;DHT22;10984;45.712;4.800;2023-01-26T08:39:41;3.20;99.90
21646;DHT22;10984;45.712;4.800;2023-01-26T08:42:06;3.20;99.90
21646;DHT22;10984;45.712;4.800;2023-01-26T08:44:32;3.10;99.90
21646;DHT22;10984;45.712;4.800;2023-01-26T08:46:57;3.10;99.90
21646;DHT22;10984;45.712;4.800;2023-01-26T08:49:23;3.10;99.90
21646;DHT22;10984;45.712;4.800;2023-01-26T08:51:49;3.20;99.90
21646;DHT22;10984;45.712;4.800;2023-01-26T08:54:14;3.20;99.90
21646;DHT22;10984;45.712;4.800;2023-01-26T08:56:40;3.20;99.90
21646;DHT22;10984;45.712;4.800;2023-01-26T08:59:06;3.30;99.90
21646;DHT22;10984;45.712;4.800;2023-01-26T09:01:32;3.30;99.90
21646;DHT22;10984;45.712;4.800;2023-01-26T09:03:57;3.30;99.90
21646;DHT22;10984;45.712;4.800;2023-01-26T09:06:23;3.40;99.90
21646;DHT22;10984;45.712;4.800;2023-01-26T09:08:49;3.30;99.90
21646;DHT22;10984;45.712;4.800;2023-01-26T09:11:15;3.30;99.90
21646;DHT22;10984;45.712;4.800;2023-01-26T09:13:40;3.30;99.90
21646;DHT22;10984;45.712;4.800;2023-01-26T09:16:11;3.30;99.90
21646;DHT22;10984;45.712;4.800;2023-01-26T09:18:39;3.30;99.90
21646;DHT22;10984;45.712;4.800;2023-01-26T09:21:06;3.20;99.90
21646;DHT22;10984;45.712;4.800;2023-01-26T09:23:33;3.20;99.90
21646;DHT22;10984;45.712;4.800;2023-01-26T09:25:59;3.30;99.90
21646;DHT22;10984;45.712;4.800;2023-01-26T09:28:25;3.20;99.90
21646;DHT22;10984;45.712;4.800;2023-01-26T09:30:50;3.30;99.90
21646;DHT22;10984;45.712;4.800;2023-01-26T09:33:16;3.30;99.90
21646;DHT22;10984;45.712;4.800;2023-01-26T09:35:42;3.20;99.90
21646;DHT22;10984;45.712;4.800;2023-01-26T09:38:07;3.30;99.90
21646;DHT22;10984;45.712;4.800;2023-01-26T09:50:02;3.40;99.90
21646;DHT22;10984;45.712;4.800;2023-01-26T09:55:34;3.50;99.90
21646;DHT22;10984;45.712;4.800;2023-01-26T09:58:03;3.60;99.90
21646;DHT22;10984;45.712;4.800;2023-01-26T10:00:52;3.60;99.90
21646;DHT22;10984;45.712;4.800;2023-01-26T10:03:43;3.60;99.90
21646;DHT22;10984;45.712;4.800;2023-01-26T10:06:29;3.50;99.90
21646;DHT22;10984;45.712;4.800;2023-01-26T10:08:59;3.60;99.90
21646;DHT22;10984;45.712;4.800;2023-01-26T10:11:45;3.50;99.90
21646;DHT22;10984;45.712;4.800;2023-01-26T10:17:35;3.30;99.90
21646;DHT22;10984;45.712;4.800;2023-01-26T10:23:11;3.20;99.90
21646;DHT22;10984;45.712;4.800;2023-01-26T10:25:41;3.20;99.90
21646;DHT22;10984;45.712;4.800;2023-01-26T10:28:28;3.40;99.90
21646;DHT22;10984;45.712;4.800;2023-01-26T10:30:55;3.20;99.90
21646;DHT22;10984;45.712;4.800;2023-01-26T10:33:41;3.30;99.90
21646;DHT22;10984;45.712;4.800;2023-01-26T10:36:09;3.30;99.90
21646;DHT22;10984;45.712;4.800;2023-01-26T10:53:01;3.50;99.90
21646;DHT22;10984;45.712;4.800;2023-01-26T10:55:27;3.40;99.90
21646;DHT22;10984;45.712;4.800;2023-01-26T10:57:53;3.30;99.90
21646;DHT22;10984;45.712;4.800;2023-01-26T11:00:37;3.30;99.90
21646;DHT22;10984;45.712;4.800;2023-01-26T11:03:22;3.40;99.90
21646;DHT22;10984;45.712;4.800;2023-01-26T11:08:49;3.50;99.90
21646;DHT22;10984;45.712;4.800;2023-01-26T11:11:33;3.40;99.90
21646;DHT22;10984;45.712;4.800;2023-01-26T11:14:17;3.40;99.90
21646;DHT22;10984;45.712;4.800;2023-01-26T12:13:39;3.50;99.90
21646;DHT22;10984;45.712;4.800;2023-01-26T16:59:14;2.70;99.90
21646;DHT22;10984;45.712;4.800;2023-01-26T17:01:42;2.70;99.90
21646;DHT22;10984;45.712;4.800;2023-01-26T17:28:19;2.50;99.90
21646;DHT22;10984;45.712;4.800;2023-01-26T18:19:27;2.40;99.90
21646;DHT22;10984;45.712;4.800;2023-01-26T18:21:53;2.40;99.90
21646;DHT22;10984;45.712;4.800;2023-01-26T18:24:18;2.40;99.90
21646;DHT22;10984;45.712;4.800;2023-01-26T18:26:45;2.40;99.90
21646;DHT22;10984;45.712;4.800;2023-01-26T18:29:10;2.50;99.90
21646;DHT22;10984;45.712;4.800;2023-01-26T18:31:37;2.40;99.90
21646;DHT22;10984;45.712;4.800;2023-01-26T18:34:06;2.40;99.90
21646;DHT22;10984;45.712;4.800;2023-01-26T18:36:32;2.40;99.90
21646;DHT22;10984;45.712;4.800;2023-01-26T18:39:00;2.50;99.90
21646;DHT22;10984;45.712;4.800;2023-01-26T18:41:28;2.50;99.90
21646;DHT22;10984;45.712;4.800;2023-01-26T18:43:55;2.40;99.90
21646;DHT22;10984;45.712;4.800;2023-01-26T18:46:40;2.40;99.90
21646;DHT22;10984;45.712;4.800;2023-01-26T18:49:05;2.40;99.90
21646;DHT22;10984;45.712;4.800;2023-01-26T18:51:33;2.30;99.90
21646;DHT22;10984;45.712;4.800;2023-01-26T18:54:00;2.30;99.90
21646;DHT22;10984;45.712;4.800;2023-01-26T18:56:26;2.30;99.90
21646;DHT22;10984;45.712;4.800;2023-01-26T18:58:53;2.30;99.90
21646;DHT22;10984;45.712;4.800;2023-01-26T19:01:19;2.30;99.90
21646;DHT22;10984;45.712;4.800;2023-01-26T19:03:45;2.30;99.90
21646;DHT22;10984;45.712;4.800;2023-01-26T19:09:15;2.30;99.90
21646;DHT22;10984;45.712;4.800;2023-01-26T19:11:41;2.20;99.90
21646;DHT22;10984;45.712;4.800;2023-01-26T19:14:07;2.20;99.90
21646;DHT22;10984;45.712;4.800;2023-01-26T19:16:33;2.20;99.90
21646;DHT22;10984;45.712;4.800;2023-01-26T19:18:59;2.20;99.90
21646;DHT22;10984;45.712;4.800;2023-01-26T19:21:25;2.30;99.90
21646;DHT22;10984;45.712;4.800;2023-01-26T19:23:53;2.20;99.90
21646;DHT22;10984;45.712;4.800;2023-01-26T19:26:24;2.30;99.90
21646;DHT22;10984;45.712;4.800;2023-01-26T19:28:50;2.30;99.90
21646;DHT22;10984;45.712;4.800;2023-01-26T19:31:17;2.30;99.90
21646;DHT22;10984;45.712;4.800;2023-01-26T19:33:49;2.30;99.90
21646;DHT22;10984;45.712;4.800;2023-01-26T19:36:15;2.20;99.90
21646;DHT22;10984;45.712;4.800;2023-01-26T19:38:41;2.20;99.90
21646;DHT22;10984;45.712;4.800;2023-01-26T19:41:07;2.10;99.90
21646;DHT22;10984;45.712;4.800;2023-01-26T19:43:32;2.10;99.90
21646;DHT22;10984;45.712;4.800;2023-01-26T19:45:58;2.20;99.90
21646;DHT22;10984;45.712;4.800;2023-01-26T19:48:26;2.20;99.90
21646;DHT22;10984;45.712;4.800;2023-01-26T19:51:12;2.20;99.90
21646;DHT22;10984;45.712;4.800;2023-01-26T19:53:39;2.10;99.90
21646;DHT22;10984;45.712;4.800;2023-01-26T19:56:07;2.10;99.90
21646;DHT22;10984;45.712;4.800;2023-01-26T19:58:34;2.10;99.90
21646;DHT22;10984;45.712;4.800;2023-01-26T20:01:19;2.20;99.90
21646;DHT22;10984;45.712;4.800;2023-01-26T20:04:04;2.10;99.90
21646;DHT22;10984;45.712;4.800;2023-01-26T20:06:32;2.00;99.90
21646;DHT22;10984;45.712;4.800;2023-01-26T20:08:58;2.00;99.90
21646;DHT22;10984;45.712;4.800;2023-01-26T20:11:25;2.00;99.90
21646;DHT22;10984;45.712;4.800;2023-01-26T20:14:11;2.10;99.90
21646;DHT22;10984;45.712;4.800;2023-01-26T20:16:37;2.10;99.90
21646;DHT22;10984;45.712;4.800;2023-01-26T20:19:04;2.00;99.90
21646;DHT22;10984;45.712;4.800;2023-01-26T20:21:30;2.10;99.90
21646;DHT22;10984;45.712;4.800;2023-01-26T20:23:56;2.00;99.90
21646;DHT22;10984;45.712;4.800;2023-01-26T20:26:24;2.00;99.90
21646;DHT22;10984;45.712;4.800;2023-01-26T20:28:49;2.00;99.90
21646;DHT22;10984;45.712;4.800;2023-01-26T20:31:18;2.00;99.90
21646;DHT22;10984;45.712;4.800;2023-01-26T20:33:45;1.90;99.90
21646;DHT22;10984;45.712;4.800;2023-01-26T20:36:30;2.00;99.90
21646;DHT22;10984;45.712;4.800;2023-01-26T20:38:57;2.00;99.90
21646;DHT22;10984;45.712;4.800;2023-01-26T20:41:26;1.90;99.90
21646;DHT22;10984;45.712;4.800;2023-01-26T20:44:11;1.90;99.90
21646;DHT22;10984;45.712;4.800;2023-01-26T20:46:55;1.90;99.90
21646;DHT22;10984;45.712;4.800;2023-01-26T20:49:21;1.90;99.90
21646;DHT22;10984;45.712;4.800;2023-01-26T20:51:47;1.80;99.90
21646;DHT22;10984;45.712;4.800;2023-01-26T20:54:14;1.90;99.90
21646;DHT22;10984;45.712;4.800;2023-01-26T20:56:41;1.80;99.90
21646;DHT22;10984;45.712;4.800;2023-01-26T20:59:07;1.80;99.90
21646;DHT22;10984;45.712;4.800;2023-01-26T21:01:33;1.80;99.90
21646;DHT22;10984;45.712;4.800;2023-01-26T21:04:00;1.80;99.90
21646;DHT22;10984;45.712;4.800;2023-01-26T21:06:27;1.80;99.90
21646;DHT22;10984;45.712;4.800;2023-01-26T21:08:55;1.80;99.90
21646;DHT22;10984;45.712;4.800;2023-01-26T21:11:23;1.80;99.90
21646;DHT22;10984;45.712;4.800;2023-01-26T21:13:49;1.80;99.90
21646;DHT22;10984;45.712;4.800;2023-01-26T21:16:16;1.80;99.90
21646;DHT22;10984;45.712;4.800;2023-01-26T21:18:43;1.80;99.90
21646;DHT22;10984;45.712;4.800;2023-01-26T21:21:12;1.80;99.90
21646;DHT22;10984;45.712;4.800;2023-01-26T21:23:39;1.90;99.90
21646;DHT22;10984;45.712;4.800;2023-01-26T21:26:08;2.00;99.90
21646;DHT22;10984;45.712;4.800;2023-01-26T21:28:34;1.90;99.90
21646;DHT22;10984;45.712;4.800;2023-01-26T21:33:30;1.90;99.90
21646;DHT22;10984;45.712;4.800;2023-01-26T21:39:00;2.00;99.90
21646;DHT22;10984;45.712;4.800;2023-01-26T21:41:28;1.80;99.90
21646;DHT22;10984;45.712;4.800;2023-01-26T21:47:18;1.80;99.90
21646;DHT22;10984;45.712;4.800;2023-01-26T21:49:44;1.80;99.90
21646;DHT22;10984;45.712;4.800;2023-01-26T21:52:10;1.80;99.90
21646;DHT22;10984;45.712;4.800;2023-01-26T21:54:55;1.80;99.90
21646;DHT22;10984;45.712;4.800;2023-01-26T21:57:23;1.80;99.90
21646;DHT22;10984;45.712;4.800;2023-01-26T22:00:08;1.80;99.90
21646;DHT22;10984;45.712;4.800;2023-01-26T22:02:34;1.70;99.90
21646;DHT22;10984;45.712;4.800;2023-01-26T22:05:00;1.70;99.90
21646;DHT22;10984;45.712;4.800;2023-01-26T22:07:27;1.80;99.90
21646;DHT22;10984;45.712;4.800;2023-01-26T22:09:53;1.70;99.90
21646;DHT22;10984;45.712;4.800;2023-01-26T22:12:18;1.70;99.90
21646;DHT22;10984;45.712;4.800;2023-01-26T22:14:44;1.70;99.90
21646;DHT22;10984;45.712;4.800;2023-01-26T22:17:09;1.70;99.90
21646;DHT22;10984;45.712;4.800;2023-01-26T22:19:35;1.60;99.90
21646;DHT22;10984;45.712;4.800;2023-01-26T22:22:01;1.60;99.90
21646;DHT22;10984;45.712;4.800;2023-01-26T22:24:27;1.70;99.90
21646;DHT22;10984;45.712;4.800;2023-01-26T22:26:53;1.70;99.90
21646;DHT22;10984;45.712;4.800;2023-01-26T22:29:19;1.70;99.90
21646;DHT22;10984;45.712;4.800;2023-01-26T22:31:44;1.70;99.90
21646;DHT22;10984;45.712;4.800;2023-01-26T22:34:10;1.70;99.90
21646;DHT22;10984;45.712;4.800;2023-01-26T22:36:36;1.70;99.90
21646;DHT22;10984;45.712;4.800;2023-01-26T22:39:02;1.70;99.90
21646;DHT22;10984;45.712;4.800;2023-01-26T22:41:29;1.70;99.90
21646;DHT22;10984;45.712;4.800;2023-01-26T22:43:57;1.70;99.90
21646;DHT22;10984;45.712;4.800;2023-01-26T22:46:24;1.70;99.90
21646;DHT22;10984;45.712;4.800;2023-01-26T22:48:50;1.70;99.90
21646;DHT22;10984;45.712;4.800;2023-01-26T22:51:27;1.60;99.90
21646;DHT22;10984;45.712;4.800;2023-01-26T22:53:54;1.60;99.90
21646;DHT22;10984;45.712;4.800;2023-01-26T22:56:20;1.60;99.90
21646;DHT22;10984;45.712;4.800;2023-01-26T22:59:05;1.60;99.90
21646;DHT22;10984;45.712;4.800;2023-01-26T23:01:31;1.60;99.90
21646;DHT22;10984;45.712;4.800;2023-01-26T23:03:59;1.50;99.90
21646;DHT22;10984;45.712;4.800;2023-01-26T23:06:25;1.50;99.90
21646;DHT22;10984;45.712;4.800;2023-01-26T23:08:51;1.50;99.90
21646;DHT22;10984;45.712;4.800;2023-01-26T23:14:03;1.60;99.90
21646;DHT22;10984;45.712;4.800;2023-01-26T23:16:29;1.50;99.90
21646;DHT22;10984;45.712;4.800;2023-01-26T23:18:56;1.50;99.90
21646;DHT22;10984;45.712;4.800;2023-01-26T23:21:23;1.50;99.90
21646;DHT22;10984;45.712;4.800;2023-01-26T23:23:49;1.50;99.90
21646;DHT22;10984;45.712;4.800;2023-01-26T23:26:15;1.60;99.90
21646;DHT22;10984;45.712;4.800;2023-01-26T23:28:42;1.60;99.90
21646;DHT22;10984;45.712;4.800;2023-01-26T23:31:09;1.60;99.90
21646;DHT22;10984;45.712;4.800;2023-01-26T23:33:36;1.60;99.90
21646;DHT22;10984;45.712;4.800;2023-01-26T23:36:02;1.60;99.90
21646;DHT22;10984;45.712;4.800;2023-01-26T23:38:29;1.60;99.90
21646;DHT22;10984;45.712;4.800;2023-01-26T23:40:55;1.60;99.90
21646;DHT22;10984;45.712;4.800;2023-01-26T23:43:21;1.70;99.90
21646;DHT22;10984;45.712;4.800;2023-01-26T23:45:48;1.70;99.90
21646;DHT22;10984;45.712;4.800;2023-01-26T23:48:14;1.60;99.90
21646;DHT22;10984;45.712;4.800;2023-01-26T23:50:40;1.60;99.90
21646;DHT22;10984;45.712;4.800;2023-01-26T23:53:07;1.60;99.90
21646;DHT22;10984;45.712;4.800;2023-01-26T23:55:33;1.70;99.90